createdAt,value
2023-05-22T00:02:13.009Z,50.22
2023-05-22T00:04:41.442Z,56.83
2023-05-22T00:07:09.900Z,49.33
2023-05-22T00:09:38.249Z,54.65
2023-05-22T00:12:07.058Z,50.17
2023-05-22T00:14:35.312Z,60.65
2023-05-22T00:17:04.206Z,57.85
2023-05-22T00:19:33.854Z,57.92
2023-05-22T00:22:02.275Z,57.15
2023-05-22T00:24:30.491Z,54.72
2023-05-22T00:26:58.745Z,58.83
2023-05-22T00:29:27.096Z,63.45
2023-05-22T00:31:55.582Z,56.50
2023-05-22T00:34:23.830Z,57.92
2023-05-22T00:36:53.729Z,58.42
2023-05-22T00:39:22.560Z,62.60
2023-05-22T00:41:50.834Z,60.78
2023-05-22T00:44:19.293Z,60.78
2023-05-22T00:46:48.110Z,56.10
2023-05-22T00:49:16.460Z,63.00
2023-05-22T00:51:45.004Z,58.55
2023-05-22T00:54:15.228Z,56.97
2023-05-22T00:56:44.352Z,59.38
2023-05-22T00:59:12.999Z,61.92
2023-05-22T01:01:42.913Z,56.53
2023-05-22T01:04:13.761Z,58.63
2023-05-22T01:06:42.183Z,58.60
2023-05-22T01:09:10.540Z,56.60
2023-05-22T01:11:52.381Z,49.90
2023-05-22T01:14:29.998Z,55.80
2023-05-22T01:17:08.953Z,56.38
2023-05-22T01:20:01.360Z,49.65
2023-05-22T01:22:58.616Z,57.67
2023-05-22T01:25:49.350Z,55.25
2023-05-22T01:28:38.689Z,53.53
2023-05-22T01:31:11.503Z,57.03
2023-05-22T01:33:45.065Z,55.53
2023-05-22T01:38:43.911Z,62.95
2023-05-22T01:41:13.008Z,59.70
2023-05-22T01:43:41.368Z,62.25
2023-05-22T01:46:11.377Z,73.53
2023-05-22T01:48:40.136Z,66.93
2023-05-22T01:51:14.734Z,63.90
2023-05-22T01:53:49.176Z,68.47
2023-05-22T01:56:22.465Z,65.60
2023-05-22T01:58:58.108Z,70.05
2023-05-22T02:01:31.130Z,73.00
2023-05-22T02:04:00.431Z,67.38
2023-05-22T02:06:33.362Z,68.53
2023-05-22T02:09:03.817Z,63.00
2023-05-22T02:11:35.057Z,63.55
2023-05-22T02:14:03.671Z,66.68
2023-05-22T02:16:33.879Z,70.50
2023-05-22T02:19:06.457Z,67.97
2023-05-22T02:21:35.722Z,67.47
2023-05-22T02:24:04.544Z,67.60
2023-05-22T02:26:32.906Z,69.07
2023-05-22T02:29:01.532Z,68.63
2023-05-22T02:31:29.917Z,71.25
2023-05-22T02:33:59.492Z,71.13
2023-05-22T02:36:28.149Z,68.40
2023-05-22T02:38:56.562Z,70.32
2023-05-22T02:41:24.936Z,78.30
2023-05-22T02:43:53.517Z,80.55
2023-05-22T02:46:21.920Z,83.15
2023-05-22T02:48:50.293Z,85.13
2023-05-22T02:51:20.407Z,86.57
2023-05-22T02:53:48.556Z,82.90
2023-05-22T02:56:16.968Z,88.82
2023-05-22T02:58:45.536Z,91.97
2023-05-22T03:01:13.888Z,84.05
2023-05-22T03:03:43.876Z,82.97
2023-05-22T03:06:12.932Z,93.15
2023-05-22T03:08:44.391Z,79.55
2023-05-22T03:11:12.958Z,82.13
2023-05-22T03:13:41.456Z,84.22
2023-05-22T03:16:09.942Z,93.20
2023-05-22T03:18:38.692Z,83.43
2023-05-22T03:21:07.706Z,82.47
2023-05-22T03:23:35.970Z,82.50
2023-05-22T03:26:05.786Z,87.93
2023-05-22T03:28:34.115Z,77.43
2023-05-22T03:31:02.373Z,84.43
2023-05-22T03:33:30.962Z,89.85
2023-05-22T03:35:59.350Z,85.28
2023-05-22T03:38:27.708Z,78.82
2023-05-22T03:40:56.104Z,78.55
2023-05-22T03:43:25.981Z,89.35
2023-05-22T03:45:54.232Z,93.80
2023-05-22T03:48:22.643Z,91.47
2023-05-22T03:50:51.227Z,91.15
2023-05-22T03:53:19.411Z,88.22
2023-05-22T03:55:47.621Z,82.72
2023-05-22T03:58:16.010Z,87.00
2023-05-22T04:00:46.291Z,92.70
2023-05-22T04:03:14.581Z,87.15
2023-05-22T04:05:43.102Z,88.40
2023-05-22T04:08:11.710Z,97.35
2023-05-22T04:10:40.284Z,103.32
2023-05-22T04:13:08.935Z,102.40
2023-05-22T04:15:37.526Z,98.35
2023-05-22T04:18:07.197Z,95.55
2023-05-22T04:20:35.996Z,94.40
2023-05-22T04:23:04.618Z,93.93
2023-05-22T04:25:34.364Z,97.45
2023-05-22T04:28:04.277Z,93.90
2023-05-22T04:30:34.056Z,107.53
2023-05-22T04:33:02.443Z,103.38
2023-05-22T04:35:32.370Z,100.63
2023-05-22T04:38:02.286Z,102.03
2023-05-22T04:40:33.884Z,107.32
2023-05-22T04:43:03.520Z,92.15
2023-05-22T04:45:33.128Z,101.75
2023-05-22T04:48:02.818Z,92.20
2023-05-22T04:50:32.994Z,93.78
2023-05-22T04:53:04.729Z,95.90
2023-05-22T04:55:35.028Z,103.07
2023-05-22T04:58:03.248Z,94.47
2023-05-22T05:00:31.504Z,101.63
2023-05-22T05:03:00.525Z,101.00
2023-05-22T05:05:28.973Z,105.63
2023-05-22T05:07:58.739Z,105.57
2023-05-22T05:10:27.190Z,95.05
2023-05-22T05:12:55.383Z,82.45
2023-05-22T05:15:24.389Z,76.15
2023-05-22T05:17:52.759Z,77.32
2023-05-22T05:20:21.762Z,75.38
2023-05-22T05:22:50.206Z,71.28
2023-05-22T05:25:19.867Z,73.40
2023-05-22T05:27:48.025Z,71.95
2023-05-22T05:30:18.248Z,78.55
2023-05-22T05:32:48.395Z,86.25
2023-05-22T05:35:16.777Z,73.80
2023-05-22T05:37:45.028Z,83.05
2023-05-22T05:40:14.416Z,84.50
2023-05-22T05:42:45.836Z,76.00
2023-05-22T05:45:15.344Z,91.00
2023-05-22T05:47:43.794Z,87.90
2023-05-22T05:50:15.528Z,87.28
2023-05-22T05:52:44.083Z,87.70
2023-05-22T05:55:12.447Z,91.95
2023-05-22T05:57:41.185Z,83.32
2023-05-22T06:00:12.225Z,82.57
2023-05-22T06:02:40.602Z,76.40
2023-05-22T06:05:09.923Z,75.72
2023-05-22T06:07:39.914Z,78.03
2023-05-22T06:10:09.580Z,64.57
2023-05-22T06:12:37.757Z,62.50
2023-05-22T06:15:07.531Z,70.80
2023-05-22T06:17:38.215Z,67.22
2023-05-22T06:20:07.306Z,69.38
2023-05-22T06:22:36.032Z,69.05
2023-05-22T06:25:05.123Z,65.60
2023-05-22T06:27:33.538Z,69.47
2023-05-22T06:30:03.713Z,69.57
2023-05-22T06:32:33.102Z,77.95
2023-05-22T06:35:03.401Z,72.68
2023-05-22T06:37:33.071Z,76.05
2023-05-22T06:40:01.323Z,68.57
2023-05-22T06:42:30.093Z,75.07
2023-05-22T06:44:58.257Z,75.30
2023-05-22T06:47:26.471Z,75.38
2023-05-22T06:49:55.159Z,71.65
2023-05-22T06:52:24.701Z,66.30
2023-05-22T06:54:52.868Z,69.13
2023-05-22T06:57:21.626Z,72.80
2023-05-22T06:59:49.838Z,61.33
2023-05-22T07:02:18.020Z,60.05
2023-05-22T07:04:46.788Z,56.47
2023-05-22T07:07:15.136Z,53.63
2023-05-22T07:09:44.708Z,57.97
2023-05-22T07:12:13.736Z,57.58
2023-05-22T07:14:42.280Z,61.15
2023-05-22T07:17:10.484Z,59.83
2023-05-22T07:19:38.805Z,65.55
2023-05-22T07:22:06.967Z,65.25
2023-05-22T07:24:35.185Z,66.53
2023-05-22T07:27:05.732Z,60.85
2023-05-22T07:29:33.926Z,56.92
2023-05-22T07:32:02.260Z,59.33
2023-05-22T07:34:33.342Z,50.25
2023-05-22T07:37:02.008Z,53.90
2023-05-22T07:39:30.148Z,55.00
2023-05-22T07:41:59.523Z,55.88
2023-05-22T07:44:30.491Z,52.28
2023-05-22T07:46:59.724Z,47.58
2023-05-22T07:49:27.977Z,57.90
2023-05-22T07:51:56.160Z,52.03
2023-05-22T07:54:24.878Z,52.22
2023-05-22T07:56:56.311Z,50.85
2023-05-22T07:59:25.628Z,53.08
2023-05-22T08:01:58.040Z,48.53
2023-05-22T08:04:27.051Z,49.23
2023-05-22T08:06:55.700Z,54.22
2023-05-22T08:09:24.035Z,45.55
2023-05-22T08:11:52.606Z,46.25
2023-05-22T08:14:22.871Z,48.58
2023-05-22T08:16:51.091Z,48.65
2023-05-22T08:19:21.184Z,54.80
2023-05-22T08:21:49.550Z,48.95
2023-05-22T08:24:17.813Z,47.65
2023-05-22T08:26:46.192Z,53.25
2023-05-22T08:29:14.344Z,47.38
2023-05-22T08:31:42.515Z,50.53
2023-05-22T08:34:11.310Z,53.50
2023-05-22T08:36:40.966Z,51.85
2023-05-22T08:39:12.096Z,50.60
2023-05-22T08:41:40.854Z,55.22
2023-05-22T08:44:09.010Z,56.33
2023-05-22T08:46:38.269Z,58.00
2023-05-22T08:49:07.166Z,58.00
2023-05-22T08:51:37.651Z,57.85
2023-05-22T08:54:08.643Z,58.78
2023-05-22T08:56:39.819Z,53.30
2023-05-22T08:59:12.608Z,56.65
2023-05-22T09:01:41.113Z,55.10
2023-05-22T09:04:09.780Z,56.67
2023-05-22T09:06:38.753Z,54.85
2023-05-22T09:09:08.338Z,62.38
2023-05-22T09:11:36.753Z,63.92
2023-05-22T09:14:09.450Z,61.88
2023-05-22T09:16:46.777Z,61.70
2023-05-22T09:19:16.059Z,64.60
2023-05-22T09:21:45.852Z,61.80
2023-05-22T09:24:16.079Z,63.17
2023-05-22T09:26:44.395Z,59.65
2023-05-22T09:29:12.647Z,59.03
2023-05-22T09:31:43.942Z,62.53
2023-05-22T09:34:14.400Z,61.97
2023-05-22T09:36:43.093Z,60.00
2023-05-22T09:39:11.323Z,64.22
2023-05-22T09:41:41.737Z,64.03
2023-05-22T09:44:17.129Z,63.58
2023-05-22T09:46:47.947Z,59.75
2023-05-22T09:49:17.469Z,61.97
2023-05-22T09:51:49.281Z,66.65
2023-05-22T09:54:19.960Z,56.88
2023-05-22T09:56:51.309Z,57.47
2023-05-22T09:59:23.725Z,62.85
2023-05-22T10:01:53.808Z,56.53
2023-05-22T10:04:25.127Z,54.80
2023-05-22T10:06:55.172Z,49.63
2023-05-22T10:09:26.263Z,52.47
2023-05-22T10:11:58.344Z,50.97
2023-05-22T10:14:28.917Z,50.03
2023-05-22T10:17:02.162Z,54.78
2023-05-22T10:19:33.224Z,55.10
2023-05-22T10:22:02.540Z,48.95
2023-05-22T10:24:31.746Z,53.75
2023-05-22T10:27:01.908Z,50.72
2023-05-22T10:29:35.398Z,46.88
2023-05-22T10:34:43.484Z,47.63
2023-05-22T10:37:23.368Z,46.55
2023-05-22T10:40:02.056Z,42.72
2023-05-22T10:42:32.938Z,44.95
2023-05-22T10:45:02.266Z,41.58
2023-05-22T10:47:30.620Z,41.70
2023-05-22T10:50:08.572Z,39.75
2023-05-22T10:52:37.193Z,35.55
2023-05-22T10:55:08.349Z,37.00
2023-05-22T10:57:39.552Z,38.60
2023-05-22T11:00:13.221Z,36.47
2023-05-22T11:02:46.489Z,36.45
2023-05-22T11:05:37.217Z,33.25
2023-05-22T11:08:47.367Z,31.70
2023-05-22T11:11:15.825Z,40.08
2023-05-22T11:13:45.407Z,34.30
2023-05-22T11:16:14.063Z,38.50
2023-05-22T11:18:43.277Z,42.38
2023-05-22T11:21:13.751Z,33.95
2023-05-22T11:23:43.082Z,35.53
2023-05-22T11:26:28.318Z,37.20
2023-05-22T11:29:00.767Z,38.60
2023-05-22T11:31:31.379Z,40.97
2023-05-22T11:33:59.758Z,35.60
2023-05-22T11:36:29.789Z,34.10
2023-05-22T11:39:00.057Z,36.85
2023-05-22T11:41:33.853Z,39.92
2023-05-22T11:44:03.940Z,34.08
2023-05-22T11:46:32.284Z,36.95
2023-05-22T11:49:01.019Z,34.80
2023-05-22T11:51:29.619Z,35.10
2023-05-22T11:53:58.576Z,36.70
2023-05-22T11:56:27.161Z,34.80
2023-05-22T11:58:55.459Z,36.22
2023-05-22T12:01:25.121Z,34.47
2023-05-22T12:03:54.498Z,38.75
2023-05-22T12:06:23.090Z,40.63
2023-05-22T12:08:52.673Z,39.75
2023-05-22T12:11:21.964Z,36.63
2023-05-22T12:13:54.127Z,36.03
2023-05-22T12:16:25.332Z,38.17
2023-05-22T12:18:54.760Z,43.33
2023-05-22T12:21:23.644Z,35.28
2023-05-22T12:23:52.420Z,42.58
2023-05-22T12:26:21.536Z,34.17
2023-05-22T12:28:53.509Z,33.65
2023-05-22T12:31:22.887Z,36.88
2023-05-22T12:33:55.178Z,34.00
2023-05-22T12:36:32.357Z,32.00
2023-05-22T12:39:00.856Z,38.15
2023-05-22T12:41:29.299Z,36.70
2023-05-22T12:43:57.460Z,34.30
2023-05-22T12:46:25.881Z,33.95
2023-05-22T12:48:55.689Z,39.30
2023-05-22T12:51:24.409Z,34.55
2023-05-22T12:53:52.783Z,39.92
2023-05-22T12:56:21.913Z,36.75
2023-05-22T12:58:50.196Z,36.40
2023-05-22T13:01:18.747Z,37.08
2023-05-22T13:03:47.657Z,37.50
2023-05-22T13:06:17.756Z,35.33
2023-05-22T13:08:46.094Z,43.25
2023-05-22T13:11:14.513Z,39.78
2023-05-22T13:13:42.670Z,45.50
2023-05-22T13:16:11.724Z,42.00
2023-05-22T13:18:40.219Z,38.45
2023-05-22T13:21:08.384Z,36.92
2023-05-22T13:23:38.209Z,42.28
2023-05-22T13:26:06.831Z,36.03
2023-05-22T13:28:35.013Z,41.67
2023-05-22T13:31:03.185Z,45.90
2023-05-22T13:33:31.841Z,36.20
2023-05-22T13:36:00.082Z,39.92
2023-05-22T13:38:28.339Z,36.35
2023-05-22T13:40:58.410Z,41.25
2023-05-22T13:43:26.710Z,39.97
2023-05-22T13:45:54.875Z,42.17
2023-05-22T13:48:23.466Z,37.97
2023-05-22T13:50:51.748Z,35.28
2023-05-22T13:53:19.982Z,39.70
2023-05-22T13:55:48.367Z,37.67
2023-05-22T13:58:18.255Z,39.17
2023-05-22T14:00:46.875Z,37.13
2023-05-22T14:03:17.942Z,45.08
2023-05-22T14:05:46.553Z,38.80
2023-05-22T14:08:14.747Z,41.35
2023-05-22T14:10:43.247Z,42.63
2023-05-22T14:13:11.485Z,42.38
2023-05-22T14:15:42.565Z,32.97
2023-05-22T14:18:11.373Z,35.65
2023-05-22T14:20:39.655Z,37.45
2023-05-22T14:23:07.972Z,37.13
2023-05-22T14:25:36.478Z,30.13
2023-05-22T14:28:04.890Z,39.88
2023-05-22T14:30:33.055Z,39.78
2023-05-22T14:33:03.208Z,37.30
2023-05-22T14:35:31.401Z,28.45
2023-05-22T14:37:59.883Z,31.30
2023-05-22T14:40:28.618Z,31.15
2023-05-22T14:42:56.878Z,32.30
2023-05-22T14:45:25.168Z,36.83
2023-05-22T14:47:53.570Z,32.92
2023-05-22T14:50:23.588Z,33.28
2023-05-22T14:52:51.892Z,38.85
2023-05-22T14:55:21.166Z,31.38
2023-05-22T14:57:49.779Z,29.60
2023-05-22T15:00:18.641Z,32.55
2023-05-22T15:02:47.321Z,33.53
2023-05-22T15:05:16.207Z,36.25
2023-05-22T15:07:47.360Z,35.60
2023-05-22T15:10:17.662Z,33.58
2023-05-22T15:12:45.829Z,37.30
2023-05-22T15:15:13.985Z,35.13
2023-05-22T15:17:43.053Z,34.80
2023-05-22T15:20:12.482Z,37.58
2023-05-22T15:22:40.789Z,35.30
2023-05-22T15:25:15.335Z,39.17
2023-05-22T15:27:44.116Z,34.22
2023-05-22T15:30:13.075Z,35.35
2023-05-22T15:32:41.542Z,37.20
2023-05-22T15:35:11.766Z,33.25
2023-05-22T15:37:40.182Z,43.00
2023-05-22T15:40:12.712Z,39.95
2023-05-22T15:42:40.964Z,38.05
2023-05-22T15:45:10.219Z,37.35
2023-05-22T15:47:38.694Z,35.85
2023-05-22T15:50:07.740Z,40.33
2023-05-22T15:52:36.339Z,33.33
2023-05-22T15:55:04.766Z,32.42
2023-05-22T15:57:34.850Z,33.58
2023-05-22T16:00:03.170Z,36.40
2023-05-22T16:02:31.609Z,37.63
2023-05-22T16:05:00.172Z,34.20
2023-05-22T16:07:28.369Z,35.08
2023-05-22T16:09:56.582Z,35.03
2023-05-22T16:12:25.385Z,41.88
2023-05-22T16:15:00.141Z,39.58
2023-05-22T16:17:29.223Z,44.92
2023-05-22T16:19:57.525Z,43.17
2023-05-22T16:22:33.024Z,45.88
2023-05-22T16:25:09.974Z,48.20
2023-05-22T16:27:38.162Z,51.08
2023-05-22T16:30:09.184Z,41.22
2023-05-22T16:32:37.530Z,53.78
2023-05-22T16:35:06.433Z,45.90
2023-05-22T16:37:34.785Z,49.35
2023-05-22T16:40:03.242Z,46.80
2023-05-22T16:42:31.593Z,51.53
2023-05-22T16:44:59.885Z,50.95
2023-05-22T16:47:30.194Z,47.38
2023-05-22T16:49:58.490Z,48.80
2023-05-22T16:52:26.985Z,52.47
2023-05-22T16:54:55.755Z,46.47
2023-05-22T16:57:24.257Z,52.13
2023-05-22T16:59:52.819Z,51.60
2023-05-22T17:02:21.675Z,56.00
2023-05-22T17:04:51.325Z,59.13
2023-05-22T17:07:19.701Z,53.60
2023-05-22T17:09:48.156Z,58.05
2023-05-22T17:12:16.574Z,53.38
2023-05-22T17:14:44.887Z,56.97
2023-05-22T17:17:13.364Z,55.72
2023-05-22T17:19:41.872Z,56.63
2023-05-22T17:22:11.773Z,56.42
2023-05-22T17:24:40.187Z,55.88
2023-05-22T17:27:08.636Z,61.67
2023-05-22T17:29:37.250Z,60.88
2023-05-22T17:32:06.565Z,56.05
2023-05-22T17:34:35.111Z,58.58
2023-05-22T17:37:03.354Z,60.03
2023-05-22T17:39:33.096Z,60.78
2023-05-22T17:42:01.576Z,61.40
2023-05-22T17:44:31.022Z,60.50
2023-05-22T17:46:59.716Z,58.65
2023-05-22T17:49:28.250Z,56.72
2023-05-22T17:51:56.870Z,48.22
2023-05-22T17:54:25.434Z,63.13
2023-05-22T17:56:55.760Z,55.85
2023-05-22T17:59:24.071Z,50.05
2023-05-22T18:01:52.441Z,53.20
2023-05-22T18:04:21.152Z,58.70
2023-05-22T18:06:49.600Z,63.20
2023-05-22T18:09:18.253Z,53.97
2023-05-22T18:11:46.765Z,52.67
2023-05-22T18:14:16.418Z,51.72
2023-05-22T18:16:44.922Z,50.53
2023-05-22T18:19:13.336Z,43.88
2023-05-22T18:21:41.842Z,49.15
2023-05-22T18:24:10.308Z,45.90
2023-05-22T18:26:38.678Z,43.22
2023-05-22T18:29:07.035Z,38.92
2023-05-22T18:31:36.998Z,40.13
2023-05-22T18:34:05.374Z,42.40
2023-05-22T18:36:34.054Z,42.03
2023-05-22T18:39:02.495Z,40.80
2023-05-22T18:41:31.217Z,37.55
2023-05-22T18:43:59.753Z,36.47
2023-05-22T18:46:28.103Z,37.78
2023-05-22T18:48:57.894Z,36.47
2023-05-22T18:51:26.175Z,36.60
2023-05-22T18:53:54.934Z,39.25
2023-05-22T18:56:23.493Z,33.08
2023-05-22T18:58:51.908Z,35.47
2023-05-22T19:01:20.266Z,33.08
2023-05-22T19:03:48.884Z,39.35
2023-05-22T19:06:20.002Z,33.85
2023-05-22T19:08:48.435Z,36.00
2023-05-22T19:11:16.844Z,37.90
2023-05-22T19:13:45.265Z,32.55
2023-05-22T19:16:16.935Z,34.60
2023-05-22T19:18:48.125Z,38.03
2023-05-22T19:21:16.456Z,38.85
2023-05-22T19:23:46.838Z,41.65
2023-05-22T19:26:15.135Z,39.20
2023-05-22T19:28:43.434Z,36.85
2023-05-22T19:31:12.304Z,40.90
2023-05-22T19:33:40.674Z,45.88
2023-05-22T19:36:09.083Z,43.60
2023-05-22T19:38:37.694Z,39.95
2023-05-22T19:41:07.379Z,41.08
2023-05-22T19:43:35.616Z,40.50
2023-05-22T19:46:08.516Z,46.53
2023-05-22T19:48:37.304Z,42.92
2023-05-22T19:51:07.022Z,47.50
2023-05-22T19:53:35.792Z,47.70
2023-05-22T19:56:04.111Z,46.80
2023-05-22T19:58:33.825Z,48.85
2023-05-22T20:01:02.442Z,49.75
2023-05-22T20:03:31.152Z,47.67
2023-05-22T20:05:59.529Z,54.20
2023-05-22T20:08:28.698Z,54.63
2023-05-22T20:10:56.994Z,50.08
2023-05-22T20:13:25.311Z,45.83
2023-05-22T20:15:57.173Z,50.17
2023-05-22T20:18:25.332Z,51.08
2023-05-22T20:20:53.618Z,41.38
2023-05-22T20:23:22.002Z,47.15
2023-05-22T20:25:50.372Z,48.67
2023-05-22T20:28:18.603Z,44.63
2023-05-22T20:30:47.140Z,50.55
2023-05-22T20:33:16.850Z,54.50
2023-05-22T20:38:19.023Z,43.08
2023-05-22T20:40:50.049Z,49.25
2023-05-22T20:43:21.330Z,50.58
2023-05-22T20:45:50.662Z,48.38
2023-05-22T20:48:20.532Z,49.08
2023-05-22T20:50:50.586Z,51.92
2023-05-22T20:53:19.952Z,60.53
2023-05-22T20:55:48.345Z,53.83
2023-05-22T20:58:17.246Z,55.40
2023-05-22T21:00:46.141Z,52.97
2023-05-22T21:03:14.668Z,62.42
2023-05-22T21:05:44.291Z,60.65
2023-05-22T21:08:12.602Z,60.72
2023-05-22T21:10:41.392Z,61.50
2023-05-22T21:13:09.787Z,64.18
2023-05-22T21:15:38.204Z,63.25
2023-05-22T21:18:06.798Z,65.40
2023-05-22T21:20:34.985Z,66.70
2023-05-22T21:23:04.802Z,64.43
2023-05-22T21:25:33.185Z,64.15
2023-05-22T21:28:02.395Z,64.05
2023-05-22T21:30:31.901Z,64.20
2023-05-22T21:33:01.189Z,63.58
2023-05-22T21:35:29.782Z,62.50
2023-05-22T21:37:58.332Z,61.45
2023-05-22T21:40:28.034Z,61.85
2023-05-22T21:42:56.352Z,57.92
2023-05-22T21:45:24.936Z,67.53
2023-05-22T21:47:53.223Z,68.30
2023-05-22T21:50:21.510Z,60.47
2023-05-22T21:52:49.822Z,60.92
2023-05-22T21:55:18.341Z,66.55
2023-05-22T21:57:47.946Z,62.22
2023-05-22T22:00:17.464Z,59.80
2023-05-22T22:02:46.118Z,58.05
2023-05-22T22:05:16.188Z,63.67
2023-05-22T22:07:44.580Z,58.55
2023-05-22T22:10:13.068Z,60.50
2023-05-22T22:12:41.471Z,60.50
2023-05-22T22:15:13.363Z,51.95
2023-05-22T22:17:41.986Z,56.95
2023-05-22T22:20:11.323Z,60.35
2023-05-22T22:22:40.080Z,57.20
2023-05-22T22:25:09.106Z,59.33
2023-05-22T22:27:37.991Z,62.05
2023-05-22T22:30:07.322Z,59.83
2023-05-22T22:32:37.281Z,58.03
2023-05-22T22:35:06.134Z,63.63
2023-05-22T22:37:34.519Z,60.53
2023-05-22T22:40:05.353Z,65.18
2023-05-22T22:42:33.626Z,65.75
2023-05-22T22:45:02.566Z,57.75
2023-05-22T22:47:31.129Z,64.25
2023-05-22T22:50:00.962Z,64.15
2023-05-22T22:52:29.721Z,63.33
2023-05-22T22:54:57.991Z,61.58
2023-05-22T22:57:26.230Z,65.13
2023-05-22T22:59:55.664Z,69.53
2023-05-22T23:02:24.087Z,66.82
2023-05-22T23:04:52.565Z,64.03
2023-05-22T23:07:24.388Z,74.18
2023-05-22T23:09:52.665Z,74.93
2023-05-22T23:12:20.914Z,76.70
2023-05-22T23:14:50.598Z,71.28
2023-05-22T23:17:19.127Z,73.55
2023-05-22T23:19:47.503Z,80.47
2023-05-22T23:22:15.797Z,95.20
2023-05-22T23:24:45.526Z,88.53
2023-05-22T23:27:14.065Z,89.22
2023-05-22T23:29:42.894Z,85.60
2023-05-22T23:32:13.097Z,86.18
2023-05-22T23:34:43.534Z,87.97
2023-05-22T23:37:11.812Z,87.25
2023-05-22T23:39:40.489Z,89.28
2023-05-22T23:42:11.194Z,90.05
2023-05-22T23:44:39.508Z,89.32
2023-05-22T23:47:08.347Z,82.55
2023-05-22T23:49:36.960Z,79.20
2023-05-22T23:52:05.515Z,79.28
2023-05-22T23:54:33.729Z,83.55
2023-05-22T23:57:02.686Z,79.65
2023-05-22T23:59:32.366Z,85.88
